Time;durP1;ratioP1;P1;durP2;ratioP2;P2;SDS_P1;SDS_P2;PMS_P1;PMS_P2;Temp;Humidity;BMP_temperature;BMP_pressure;BME280_temperature;BME280_humidity;BME280_pressure;Samples;Min_cycle;Max_cycle;Signal;HPM_P1;HPM_P2
2022/01/28 05:27:18;;;;;;;1.20;1.20;;;2.00;99.90;;;;;;4921227;28;20386;-67
2022/01/28 05:29:45;;;;;;;1.10;1.10;;;2.00;99.90;;;;;;4956362;29;20207;-67
2022/01/28 05:32:12;;;;;;;1.10;1.10;;;2.00;99.90;;;;;;4955879;29;20295;-67
2022/01/28 05:34:40;;;;;;;1.40;1.40;;;2.00;99.90;;;;;;4955355;29;20224;-66
2022/01/28 05:37:08;;;;;;;1.30;1.30;;;2.00;99.90;;;;;;4955782;28;20296;-65
2022/01/28 05:39:36;;;;;;;1.33;1.33;;;2.10;99.90;;;;;;4955751;29;20214;-65
2022/01/28 05:42:04;;;;;;;1.40;1.40;;;2.10;99.90;;;;;;4955682;29;20627;-66
2022/01/28 05:44:31;;;;;;;1.73;1.70;;;2.10;99.90;;;;;;4955516;28;20278;-66
2022/01/28 05:47:02;;;;;;;2.13;2.03;;;2.10;99.90;;;;;;4955717;29;20296;-66
2022/01/28 05:49:29;;;;;;;1.75;1.70;;;2.10;99.90;;;;;;4955774;29;20529;-66
2022/01/28 05:51:56;;;;;;;2.35;2.25;;;2.10;99.90;;;;;;4955568;29;20200;-66
2022/01/28 05:54:23;;;;;;;2.70;2.60;;;2.10;99.90;;;;;;4955128;29;20223;-66
2022/01/28 05:56:51;;;;;;;2.53;2.42;;;2.10;99.90;;;;;;4955527;29;20294;-66
2022/01/28 05:59:19;;;;;;;2.45;2.35;;;2.10;99.90;;;;;;4955491;29;20295;-66
2022/01/28 06:01:46;;;;;;;2.22;2.13;;;2.10;99.90;;;;;;4955445;29;20570;-66
2022/01/28 06:04:13;;;;;;;2.20;2.10;;;2.10;99.90;;;;;;4955458;29;20318;-66
2022/01/28 06:06:39;;;;;;;2.20;2.10;;;2.10;99.90;;;;;;4955804;29;20199;-65
2022/01/28 06:09:06;;;;;;;2.17;2.00;;;2.10;99.90;;;;;;4955929;29;20295;-67
2022/01/28 06:11:33;;;;;;;2.47;2.30;;;2.10;99.90;;;;;;4955486;29;20291;-67
2022/01/28 06:14:01;;;;;;;2.13;2.13;;;2.10;99.90;;;;;;4955348;29;20315;-67
2022/01/28 06:16:28;;;;;;;2.08;2.08;;;2.10;99.90;;;;;;4955627;28;20246;-68
2022/01/28 06:18:55;;;;;;;1.90;1.90;;;2.10;99.90;;;;;;4956159;28;20294;-67
2022/01/28 06:21:22;;;;;;;1.98;1.95;;;2.10;99.90;;;;;;4959253;29;20630;-67
2022/01/28 06:23:51;;;;;;;2.13;2.03;;;2.10;99.90;;;;;;4958704;29;20662;-67
2022/01/28 06:26:19;;;;;;;2.05;1.95;;;2.10;99.90;;;;;;4959260;29;20227;-67
2022/01/28 06:28:45;;;;;;;2.08;1.98;;;2.10;99.90;;;;;;4959109;29;20246;-67
2022/01/28 06:31:14;;;;;;;1.50;1.50;;;2.10;99.90;;;;;;4959083;29;20295;-66
2022/01/28 06:33:41;;;;;;;1.67;1.67;;;2.10;99.90;;;;;;4958627;29;20684;-66
2022/01/28 06:36:08;;;;;;;1.58;1.58;;;2.20;99.90;;;;;;4959036;29;20735;-65
2022/01/28 06:38:34;;;;;;;2.10;2.00;;;2.20;99.90;;;;;;4958785;29;20211;-66
2022/01/28 06:41:01;;;;;;;2.17;1.98;;;2.20;99.90;;;;;;4958888;29;20239;-66
2022/01/28 06:43:28;;;;;;;2.00;1.90;;;2.20;99.90;;;;;;4958780;29;20314;-66
2022/01/28 06:45:55;;;;;;;2.15;2.10;;;2.20;99.90;;;;;;4958783;29;20207;-66
2022/01/28 06:48:23;;;;;;;2.10;2.03;;;2.20;99.90;;;;;;4958806;29;20295;-66
2022/01/28 06:50:50;;;;;;;2.30;2.30;;;2.20;99.90;;;;;;4958717;28;20297;-67
2022/01/28 06:53:17;;;;;;;1.95;1.95;;;2.20;99.90;;;;;;4958509;29;20226;-67
2022/01/28 06:55:44;;;;;;;2.05;2.05;;;2.20;99.90;;;;;;4958721;29;20294;-67
2022/01/28 06:58:11;;;;;;;1.92;1.90;;;2.20;99.90;;;;;;4958330;29;20204;-67
2022/01/28 07:00:40;;;;;;;1.90;1.80;;;2.20;99.90;;;;;;4958480;29;20286;-66
2022/01/28 07:03:08;;;;;;;1.70;1.70;;;2.20;99.90;;;;;;4958201;29;20249;-67
2022/01/28 07:05:36;;;;;;;1.67;1.67;;;2.20;99.90;;;;;;4958421;29;20299;-66
2022/01/28 07:08:04;;;;;;;1.90;1.90;;;2.20;99.90;;;;;;4958446;29;20275;-66
2022/01/28 07:10:31;;;;;;;2.50;2.40;;;2.20;99.90;;;;;;4958279;29;20204;-66
2022/01/28 07:12:58;;;;;;;2.00;2.00;;;2.10;99.90;;;;;;4957877;29;20668;-67
2022/01/28 07:15:26;;;;;;;2.45;2.30;;;2.10;99.90;;;;;;4958203;29;20315;-67
2022/01/28 07:17:54;;;;;;;2.20;2.17;;;2.10;99.90;;;;;;4958372;29;20195;-67
2022/01/28 07:20:22;;;;;;;2.03;1.92;;;2.10;99.90;;;;;;4958609;29;20627;-67
2022/01/28 07:22:50;;;;;;;2.97;2.70;;;2.10;99.90;;;;;;4958047;29;20310;-67
2022/01/28 07:25:17;;;;;;;2.33;2.22;;;2.10;99.90;;;;;;4957804;29;20646;-67
2022/01/28 07:27:44;;;;;;;2.67;2.50;;;2.20;99.90;;;;;;4958299;28;20230;-67
2022/01/28 07:30:13;;;;;;;2.40;2.20;;;2.20;99.90;;;;;;4957757;28;20310;-67
2022/01/28 07:32:40;;;;;;;2.90;2.70;;;2.10;99.90;;;;;;4958148;28;20211;-67
2022/01/28 07:35:07;;;;;;;3.05;2.85;;;2.10;99.90;;;;;;4959517;29;20220;-67
2022/01/28 07:37:34;;;;;;;2.80;2.70;;;2.10;99.90;;;;;;4959971;28;20272;-67
2022/01/28 07:40:03;;;;;;;3.22;2.80;;;2.10;99.90;;;;;;4960630;29;20299;-67
2022/01/28 07:42:33;;;;;;;2.30;2.30;;;2.10;99.90;;;;;;4958909;29;20267;-67
2022/01/28 07:45:00;;;;;;;2.53;2.42;;;2.10;99.90;;;;;;4958016;29;20196;-66
2022/01/28 07:47:27;;;;;;;2.33;2.22;;;2.30;99.90;;;;;;4957376;29;20236;-66
2022/01/28 07:49:54;;;;;;;2.20;2.10;;;2.40;99.90;;;;;;4957320;29;20296;-66
2022/01/28 07:52:21;;;;;;;2.35;2.25;;;2.70;99.90;;;;;;4957323;29;20295;-66
2022/01/28 07:54:49;;;;;;;3.00;2.90;;;3.70;99.90;;;;;;4957421;29;20319;-66
2022/01/28 07:57:18;;;;;;;2.45;2.35;;;4.90;99.90;;;;;;4957549;29;20200;-66
2022/01/28 07:59:45;;;;;;;2.55;2.45;;;4.90;99.90;;;;;;4957454;29;20208;-66
2022/01/28 08:02:12;;;;;;;2.22;2.13;;;4.60;99.90;;;;;;4957284;29;20657;-67
2022/01/28 08:04:39;;;;;;;2.20;2.10;;;4.20;99.90;;;;;;4957250;29;20306;-67
2022/01/28 08:07:06;;;;;;;2.25;2.08;;;4.50;99.90;;;;;;4956974;29;20208;-67
2022/01/28 08:09:33;;;;;;;2.60;2.50;;;4.80;99.90;;;;;;4957168;29;20295;-66
2022/01/28 08:12:00;;;;;;;1.77;1.77;;;5.70;99.90;;;;;;4956803;29;20303;-65
2022/01/28 08:14:30;;;;;;;2.75;2.00;;;6.80;99.90;;;;;;4956824;29;20619;-65
2022/01/28 08:16:57;;;;;;;2.05;1.95;;;7.30;99.90;;;;;;4957229;29;20277;-65
2022/01/28 08:19:24;;;;;;;1.75;1.65;;;7.00;99.90;;;;;;4957167;29;20303;-65
2022/01/28 08:21:51;;;;;;;1.85;1.75;;;6.40;99.90;;;;;;4957510;29;20258;-65
2022/01/28 08:24:18;;;;;;;1.40;1.40;;;5.80;99.90;;;;;;4956823;29;20741;-68
2022/01/28 08:26:45;;;;;;;1.45;1.42;;;5.20;99.90;;;;;;4956822;29;20731;-67
2022/01/28 08:29:12;;;;;;;1.50;1.50;;;5.00;99.90;;;;;;4956783;29;20204;-67
2022/01/28 08:31:40;;;;;;;1.70;1.70;;;5.00;99.90;;;;;;4957157;29;20295;-66
2022/01/28 08:34:07;;;;;;;1.67;1.60;;;5.10;99.90;;;;;;4956783;29;20339;-66
2022/01/28 08:36:34;;;;;;;1.60;1.60;;;5.10;99.90;;;;;;4956813;29;20294;-66
2022/01/28 08:39:04;;;;;;;1.65;1.55;;;5.00;99.90;;;;;;4956692;28;20242;-68
2022/01/28 08:41:32;;;;;;;1.90;1.80;;;4.80;99.90;;;;;;4956469;28;20208;-67
2022/01/28 08:43:59;;;;;;;1.98;1.88;;;4.80;99.90;;;;;;4956572;29;20258;-67
2022/01/28 08:46:26;;;;;;;1.90;1.80;;;4.70;99.90;;;;;;4956198;29;20295;-67
2022/01/28 08:48:54;;;;;;;1.80;1.70;;;4.60;99.90;;;;;;4956625;29;20208;-67
2022/01/28 08:51:21;;;;;;;2.00;1.90;;;4.50;99.90;;;;;;4956743;29;20667;-67
2022/01/28 08:53:48;;;;;;;1.92;1.75;;;4.30;99.90;;;;;;4956262;29;20311;-67
2022/01/28 08:56:15;;;;;;;1.35;1.35;;;4.20;99.90;;;;;;4956110;29;20295;-67
2022/01/28 08:58:42;;;;;;;2.08;1.88;;;4.10;99.90;;;;;;4956647;29;20283;-67
2022/01/28 09:01:10;;;;;;;1.73;1.63;;;4.10;99.90;;;;;;4956749;29;20633;-67
2022/01/28 09:03:37;;;;;;;1.50;1.50;;;4.00;99.90;;;;;;4956269;29;20224;-66
2022/01/28 09:06:05;;;;;;;1.80;1.67;;;4.00;99.90;;;;;;4956636;29;20287;-66
2022/01/28 09:08:32;;;;;;;1.98;1.90;;;3.90;99.90;;;;;;4956561;29;20271;-66
2022/01/28 09:11:18;;;;;;;1.90;1.80;;;4.00;99.90;;;;;;4956427;29;20290;-67
2022/01/28 09:13:45;;;;;;;2.15;2.13;;;4.00;99.90;;;;;;4956452;29;20220;-67
2022/01/28 09:16:12;;;;;;;1.83;1.73;;;3.90;99.90;;;;;;4955840;29;20675;-67
2022/01/28 09:18:39;;;;;;;1.90;1.80;;;3.90;99.90;;;;;;4955416;29;20294;-67
2022/01/28 09:21:07;;;;;;;1.95;1.85;;;3.80;99.90;;;;;;4956432;28;20234;-67
2022/01/28 09:23:34;;;;;;;1.60;1.60;;;3.80;99.90;;;;;;4955592;29;20750;-68
2022/01/28 09:26:01;;;;;;;1.67;1.67;;;3.90;99.90;;;;;;4955634;29;20306;-68
2022/01/28 09:28:28;;;;;;;1.65;1.65;;;4.00;99.90;;;;;;4955716;29;20561;-68
2022/01/28 09:30:57;;;;;;;1.88;1.77;;;4.00;99.90;;;;;;4956015;29;20247;-67
2022/01/28 09:33:24;;;;;;;1.88;1.70;;;4.00;99.90;;;;;;4955996;29;20270;-67
2022/01/28 09:35:53;;;;;;;1.98;1.88;;;3.90;99.90;;;;;;4955879;29;20318;-65
2022/01/28 09:38:22;;;;;;;3.17;2.47;;;3.90;99.90;;;;;;4955699;29;20298;-65
2022/01/28 09:40:49;;;;;;;2.20;2.10;;;3.90;99.90;;;;;;4955481;29;20210;-65
2022/01/28 09:43:16;;;;;;;2.45;2.25;;;3.90;99.90;;;;;;4955628;29;20228;-65
2022/01/28 09:45:47;;;;;;;2.20;1.98;;;3.90;99.90;;;;;;4956141;29;20255;-65
2022/01/28 09:48:15;;;;;;;1.90;1.80;;;3.90;99.90;;;;;;4955588;29;20184;-65
2022/01/28 09:50:42;;;;;;;2.00;1.95;;;3.90;99.90;;;;;;4955225;29;20208;-65
2022/01/28 09:53:09;;;;;;;2.17;2.08;;;4.00;99.90;;;;;;4955158;28;20224;-65
2022/01/28 09:55:38;;;;;;;2.60;2.40;;;4.00;99.90;;;;;;4955211;29;20227;-65
2022/01/28 09:58:04;;;;;;;2.00;1.90;;;4.00;99.90;;;;;;4955457;28;20188;-65
2022/01/28 10:00:33;;;;;;;3.78;2.13;;;4.00;99.90;;;;;;4955507;29;20208;-67
2022/01/28 10:03:03;;;;;;;3.47;2.85;;;4.10;99.90;;;;;;4955489;29;20256;-67
2022/01/28 10:05:32;;;;;;;2.75;2.55;;;4.20;99.90;;;;;;4955478;29;20207;-67
2022/01/28 10:08:08;;;;;;;2.22;2.13;;;4.40;99.90;;;;;;4955406;29;20208;-66
2022/01/28 10:10:59;;;;;;;3.00;2.70;;;4.60;99.90;;;;;;4955113;29;20198;-65
2022/01/28 10:13:34;;;;;;;3.53;2.88;;;4.80;99.90;;;;;;4953425;28;20219;-65
2022/01/28 10:16:07;;;;;;;3.40;3.08;;;4.90;99.90;;;;;;4960600;29;20260;-65
2022/01/28 10:18:44;;;;;;;4.35;2.95;;;4.90;99.90;;;;;;4961848;29;20192;-67
2022/01/28 10:21:26;;;;;;;3.80;3.13;;;4.70;99.90;;;;;;4960176;29;20275;-65
2022/01/28 10:24:07;;;;;;;3.10;2.90;;;4.50;99.90;;;;;;4959917;29;20223;-65
2022/01/28 10:26:39;;;;;;;3.28;2.78;;;4.30;99.90;;;;;;4959880;29;20274;-66
2022/01/28 10:29:08;;;;;;;2.55;2.45;;;4.20;99.90;;;;;;4958175;29;20220;-65
2022/01/28 10:31:53;;;;;;;2.75;2.35;;;4.10;99.90;;;;;;4956343;29;20644;-65
2022/01/28 10:34:31;;;;;;;4.57;2.90;;;4.10;99.90;;;;;;4954912;29;20262;-65
2022/01/28 10:37:13;;;;;;;2.40;2.30;;;4.10;99.90;;;;;;4955243;29;20275;-65
2022/01/28 10:39:43;;;;;;;2.40;2.22;;;4.00;99.90;;;;;;4955257;29;20223;-65
2022/01/28 10:42:14;;;;;;;2.00;1.90;;;4.00;99.90;;;;;;4954949;29;20317;-65
2022/01/28 10:44:56;;;;;;;2.20;2.10;;;3.90;99.90;;;;;;4955083;29;20216;-65
2022/01/28 10:47:31;;;;;;;2.50;2.30;;;3.90;99.90;;;;;;4955070;29;20195;-65
2022/01/28 10:49:59;;;;;;;2.55;2.42;;;3.80;99.90;;;;;;4955049;29;20303;-65
2022/01/28 10:52:32;;;;;;;3.80;2.95;;;3.80;99.90;;;;;;4955044;29;20192;-65
2022/01/28 10:54:59;;;;;;;2.90;2.60;;;3.80;99.90;;;;;;4954714;29;20706;-65
2022/01/28 10:57:30;;;;;;;3.75;2.70;;;3.70;99.90;;;;;;4954975;29;20298;-65
2022/01/28 10:59:58;;;;;;;3.15;2.95;;;3.70;99.90;;;;;;4954703;29;20644;-65
2022/01/28 11:02:26;;;;;;;2.50;2.30;;;3.80;99.90;;;;;;4954592;28;20556;-65
2022/01/28 11:04:56;;;;;;;2.38;2.28;;;3.90;99.90;;;;;;4954976;28;20311;-66
2022/01/28 11:07:24;;;;;;;2.47;2.00;;;4.00;99.90;;;;;;4957497;28;20295;-67
2022/01/28 11:09:50;;;;;;;3.20;2.00;;;4.20;99.90;;;;;;4958867;29;20208;-66
2022/01/28 11:12:18;;;;;;;2.22;2.17;;;4.30;99.90;;;;;;4958589;29;20291;-67
2022/01/28 11:14:47;;;;;;;2.00;1.90;;;4.50;99.90;;;;;;4958057;29;20228;-67
2022/01/28 11:17:16;;;;;;;4.95;2.33;;;4.60;99.90;;;;;;4959352;29;20208;-67
2022/01/28 11:19:44;;;;;;;2.38;2.25;;;4.70;99.90;;;;;;4958104;29;20672;-67
2022/01/28 11:22:28;;;;;;;2.67;2.47;;;4.80;99.90;;;;;;4958534;29;20208;-67
2022/01/28 11:25:16;;;;;;;2.00;1.90;;;4.90;99.90;;;;;;4958030;29;20750;-67
2022/01/28 11:27:48;;;;;;;1.83;1.73;;;5.00;99.90;;;;;;4958412;29;20275;-67
2022/01/28 11:30:22;;;;;;;1.77;1.67;;;5.00;99.90;;;;;;4958476;28;20291;-67
2022/01/28 11:33:01;;;;;;;2.45;1.55;;;5.00;99.90;;;;;;4958025;28;20703;-67
2022/01/28 11:35:34;;;;;;;1.63;1.55;;;4.90;99.90;;;;;;4958258;28;20204;-66
2022/01/28 11:38:04;;;;;;;1.88;1.77;;;4.90;99.90;;;;;;4958099;29;20283;-66
2022/01/28 11:40:45;;;;;;;1.77;1.77;;;4.90;99.90;;;;;;4958127;29;20188;-65
2022/01/28 11:43:21;;;;;;;2.08;1.73;;;4.80;99.90;;;;;;4957846;29;20259;-65
2022/01/28 11:46:04;;;;;;;2.38;2.05;;;4.80;99.90;;;;;;4958033;29;20631;-65
2022/01/28 11:49:15;;;;;;;1.48;1.48;;;4.70;99.90;;;;;;4958045;29;20275;-65
2022/01/28 11:51:43;;;;;;;1.85;1.75;;;4.80;99.90;;;;;;4958163;29;20290;-65
2022/01/28 11:54:13;;;;;;;1.73;1.70;;;4.80;99.90;;;;;;4957709;29;20230;-65
2022/01/28 11:56:41;;;;;;;1.77;1.73;;;4.90;99.90;;;;;;4957684;28;20707;-66
2022/01/28 11:59:10;;;;;;;1.55;1.55;;;4.90;99.90;;;;;;4957770;29;20298;-67
2022/01/28 12:02:10;;;;;;;1.40;1.30;;;4.80;99.90;;;;;;4957759;29;20299;-67
2022/01/28 12:04:38;;;;;;;1.23;1.23;;;4.80;99.90;;;;;;4958145;28;20228;-67
2022/01/28 12:07:09;;;;;;;1.48;1.38;;;4.70;99.90;;;;;;4957595;29;20626;-67
2022/01/28 12:09:38;;;;;;;2.03;1.63;;;4.60;99.90;;;;;;4957634;29;20283;-67
2022/01/28 12:12:09;;;;;;;1.27;1.27;;;4.50;99.90;;;;;;4957539;29;20295;-67
2022/01/28 12:14:58;;;;;;;1.17;1.17;;;4.50;99.90;;;;;;4957790;28;20315;-67
2022/01/28 12:17:41;;;;;;;2.05;1.95;;;4.50;99.90;;;;;;4956903;28;20208;-67
2022/01/28 12:20:11;;;;;;;2.00;1.90;;;4.50;99.90;;;;;;4957215;29;20275;-67
2022/01/28 12:23:02;;;;;;;1.70;1.50;;;4.50;99.90;;;;;;4957102;29;20279;-67
2022/01/28 12:25:54;;;;;;;1.83;1.73;;;4.40;99.90;;;;;;4956706;29;20303;-67
2022/01/28 12:28:23;;;;;;;2.15;1.95;;;4.50;99.90;;;;;;4957623;29;20275;-67
2022/01/28 12:30:51;;;;;;;1.98;1.50;;;4.50;99.90;;;;;;4958444;29;20295;-66
2022/01/28 12:33:24;;;;;;;1.83;1.73;;;4.60;99.90;;;;;;4957875;29;20314;-66
2022/01/28 12:35:53;;;;;;;1.77;1.67;;;4.60;99.90;;;;;;4957119;29;20215;-66
2022/01/28 12:38:24;;;;;;;1.95;1.38;;;4.70;99.90;;;;;;4956935;29;20215;-66
2022/01/28 12:40:53;;;;;;;1.83;1.38;;;4.60;99.90;;;;;;4956841;29;20197;-67
2022/01/28 12:43:21;;;;;;;1.60;1.50;;;4.60;99.90;;;;;;4956490;29;20704;-67
2022/01/28 12:45:58;;;;;;;1.20;1.20;;;4.50;99.90;;;;;;4957162;29;20299;-67
2022/01/28 12:48:26;;;;;;;1.63;1.50;;;4.50;99.90;;;;;;4956988;29;20275;-66
2022/01/28 12:50:54;;;;;;;1.17;1.08;;;4.50;99.90;;;;;;4956944;29;20303;-66
2022/01/28 12:53:30;;;;;;;1.35;1.30;;;4.50;99.90;;;;;;4956777;29;20223;-66
2022/01/28 12:55:57;;;;;;;1.45;1.35;;;4.50;99.90;;;;;;4956309;29;20278;-66
2022/01/28 12:58:35;;;;;;;1.35;1.35;;;4.50;99.90;;;;;;4956560;29;20214;-66
2022/01/28 13:01:11;;;;;;;2.28;1.45;;;4.50;99.90;;;;;;4956471;29;20287;-66
2022/01/28 13:03:47;;;;;;;2.28;1.83;;;4.50;99.90;;;;;;4956006;29;20778;-67
2022/01/28 13:06:22;;;;;;;1.90;1.70;;;4.50;99.90;;;;;;4956405;28;20184;-65
2022/01/28 13:08:49;;;;;;;2.58;1.83;;;4.60;99.90;;;;;;4956405;29;20192;-67
2022/01/28 13:11:15;;;;;;;1.90;1.80;;;4.60;95.10;;;;;;4955865;29;20235;-65
2022/01/28 13:13:48;;;;;;;2.80;1.80;;;4.60;96.80;;;;;;4956220;29;20318;-66
2022/01/28 13:16:15;;;;;;;2.30;1.33;;;4.50;98.10;;;;;;4956314;29;20294;-66
2022/01/28 13:18:56;;;;;;;2.70;2.00;;;4.50;98.30;;;;;;4955808;29;20294;-66
2022/01/28 13:21:23;;;;;;;3.95;1.67;;;4.30;96.50;;;;;;4956155;29;20195;-66
2022/01/28 13:24:03;;;;;;;1.98;1.52;;;4.20;98.40;;;;;;4955932;29;20220;-65
2022/01/28 13:26:30;;;;;;;1.45;1.35;;;4.10;99.90;;;;;;4955710;29;20551;-66
2022/01/28 13:29:06;;;;;;;2.22;1.42;;;4.10;99.90;;;;;;4955474;28;20290;-66
2022/01/28 13:31:34;;;;;;;1.63;1.52;;;4.10;99.90;;;;;;4958021;28;20242;-66
2022/01/28 13:34:05;;;;;;;1.55;1.23;;;4.10;99.90;;;;;;4956966;29;20226;-65
2022/01/28 13:36:49;;;;;;;1.15;1.15;;;4.10;98.20;;;;;;4957001;28;20224;-66
2022/01/28 13:39:19;;;;;;;2.22;1.33;;;4.10;99.70;;;;;;4957447;29;20210;-66
2022/01/28 13:41:50;;;;;;;1.35;1.35;;;4.10;99.50;;;;;;4957895;28;20228;-65
2022/01/28 13:44:25;;;;;;;1.80;1.35;;;4.10;99.50;;;;;;4957658;28;20228;-65
2022/01/28 13:46:59;;;;;;;1.10;1.10;;;4.10;96.40;;;;;;4958132;29;20572;-66
2022/01/28 13:49:35;;;;;;;1.50;1.40;;;4.10;95.80;;;;;;4957744;29;20184;-66
2022/01/28 13:52:17;;;;;;;1.60;1.50;;;4.10;98.30;;;;;;4958629;29;20207;-65
2022/01/28 13:54:45;;;;;;;1.50;1.40;;;4.10;99.90;;;;;;4959376;28;20259;-66
2022/01/28 13:57:13;;;;;;;1.38;1.27;;;4.20;99.90;;;;;;4958240;29;20227;-66
2022/01/28 13:59:43;;;;;;;2.83;1.52;;;4.20;99.90;;;;;;4958173;28;20200;-66
2022/01/28 14:02:17;;;;;;;2.60;1.25;;;4.20;99.50;;;;;;4957868;29;20200;-66
2022/01/28 14:04:48;;;;;;;1.60;0.98;;;4.30;99.10;;;;;;4958448;29;20215;-66
2022/01/28 14:07:18;;;;;;;1.33;1.20;;;4.30;99.90;;;;;;4957739;29;20291;-66
2022/01/28 14:09:49;;;;;;;1.02;0.98;;;4.40;98.00;;;;;;4958664;28;20236;-65
2022/01/28 14:12:29;;;;;;;1.02;0.88;;;4.40;96.10;;;;;;4959258;29;20204;-65
2022/01/28 14:15:08;;;;;;;1.50;1.15;;;4.40;95.90;;;;;;4957621;29;20188;-65
2022/01/28 14:17:35;;;;;;;1.00;1.00;;;4.40;95.60;;;;;;4957599;29;20231;-65
2022/01/28 14:20:05;;;;;;;1.40;1.30;;;4.40;93.90;;;;;;4956511;29;20208;-66
2022/01/28 14:22:33;;;;;;;1.60;1.00;;;4.30;92.20;;;;;;4957130;29;20682;-66
2022/01/28 14:25:00;;;;;;;1.50;1.40;;;4.20;92.10;;;;;;4957417;28;20216;-65
2022/01/28 14:30:22;;;;;;;1.02;1.00;;;4.20;95.30;;;;;;4952772;29;20203;-65
2022/01/28 14:32:49;;;;;;;1.40;1.10;;;4.20;95.40;;;;;;4956984;28;20236;-66
2022/01/28 14:35:18;;;;;;;1.20;1.10;;;4.10;96.80;;;;;;4956707;29;20204;-66
2022/01/28 14:37:46;;;;;;;1.58;1.17;;;4.10;98.80;;;;;;4955217;29;20216;-66
2022/01/28 14:40:15;;;;;;;1.05;1.05;;;4.10;99.30;;;;;;4956374;28;20208;-65
2022/01/28 14:42:42;;;;;;;0.95;0.90;;;4.00;99.90;;;;;;4958947;28;20204;-65
2022/01/28 14:45:10;;;;;;;1.00;1.00;;;4.00;99.90;;;;;;4958947;29;20298;-65
2022/01/28 14:47:37;;;;;;;1.17;1.17;;;3.90;99.90;;;;;;4958844;29;20204;-65
2022/01/28 14:50:05;;;;;;;2.58;0.80;;;3.90;99.90;;;;;;4958811;29;20207;-64
2022/01/28 14:52:34;;;;;;;1.90;1.30;;;3.80;99.90;;;;;;4958799;29;20329;-65
2022/01/28 14:55:02;;;;;;;1.95;1.30;;;3.80;99.90;;;;;;4958722;29;20203;-65
2022/01/28 14:57:29;;;;;;;1.73;1.63;;;3.80;99.90;;;;;;4958611;29;20216;-65
2022/01/28 14:59:56;;;;;;;1.45;1.45;;;3.80;99.90;;;;;;4958272;29;20210;-65
2022/01/28 15:02:27;;;;;;;1.83;1.55;;;3.80;99.90;;;;;;4958504;29;20294;-65
2022/01/28 15:04:55;;;;;;;1.65;1.55;;;3.80;99.90;;;;;;4958939;29;20318;-65
2022/01/28 15:07:25;;;;;;;2.47;1.45;;;3.80;99.90;;;;;;4958599;29;20204;-65
2022/01/28 15:09:56;;;;;;;1.15;1.10;;;3.80;99.90;;;;;;4958209;29;20703;-67
2022/01/28 15:12:23;;;;;;;1.33;1.33;;;3.80;99.90;;;;;;4958252;29;20731;-66
2022/01/28 15:14:50;;;;;;;1.50;1.40;;;3.70;99.90;;;;;;4957998;29;20235;-65
2022/01/28 15:17:18;;;;;;;2.22;1.23;;;3.70;99.90;;;;;;4957846;29;20258;-65
2022/01/28 15:19:45;;;;;;;1.17;1.17;;;3.70;99.90;;;;;;4957962;29;20699;-65
2022/01/28 15:22:12;;;;;;;1.52;1.30;;;3.60;99.90;;;;;;4957933;29;20299;-65
2022/01/28 15:24:39;;;;;;;1.95;1.40;;;3.60;99.90;;;;;;4957709;29;20323;-65
2022/01/28 15:27:09;;;;;;;2.53;1.20;;;3.60;99.90;;;;;;4958064;29;20210;-65
2022/01/28 15:29:47;;;;;;;1.58;1.48;;;3.60;99.90;;;;;;4958288;29;20219;-65
2022/01/28 15:37:42;;;;;;;1.20;1.20;;;3.50;99.90;;;;;;4957228;29;20227;-65
2022/01/28 15:40:10;;;;;;;1.40;1.30;;;3.40;99.90;;;;;;4957820;29;20203;-65
2022/01/28 15:42:38;;;;;;;1.33;1.25;;;3.40;99.90;;;;;;4957458;28;20261;-66
2022/01/28 15:45:06;;;;;;;1.17;1.17;;;3.30;99.90;;;;;;4957862;29;20247;-65
2022/01/28 15:47:33;;;;;;;1.10;1.10;;;3.30;99.90;;;;;;4957831;28;20287;-65
2022/01/28 15:50:00;;;;;;;1.60;1.50;;;3.20;99.90;;;;;;4957479;29;20204;-65
2022/01/28 15:52:27;;;;;;;1.35;1.35;;;3.20;99.90;;;;;;4957120;28;20238;-65
2022/01/28 15:54:54;;;;;;;1.23;1.13;;;3.20;99.90;;;;;;4957655;29;20243;-64
2022/01/28 15:57:21;;;;;;;1.10;1.10;;;3.10;99.90;;;;;;4957249;29;20307;-65
2022/01/28 15:59:49;;;;;;;1.15;1.10;;;3.00;99.90;;;;;;4957220;29;20211;-65
2022/01/28 16:02:16;;;;;;;0.98;0.98;;;3.00;99.90;;;;;;4957441;29;20759;-64
2022/01/28 16:04:45;;;;;;;1.20;1.20;;;2.90;99.90;;;;;;4957380;29;20310;-65
2022/01/28 16:07:14;;;;;;;1.25;1.17;;;2.90;99.90;;;;;;4957720;29;20287;-65
2022/01/28 16:09:48;;;;;;;0.88;0.88;;;2.80;99.90;;;;;;4957580;29;20193;-65
2022/01/28 16:12:33;;;;;;;1.10;1.00;;;2.80;99.90;;;;;;4957249;29;20711;-65
2022/01/28 16:15:08;;;;;;;0.90;0.90;;;2.70;99.90;;;;;;4957017;29;20531;-65
2022/01/28 16:17:38;;;;;;;1.85;0.80;;;2.70;99.90;;;;;;4957463;28;20212;-64
2022/01/28 16:20:06;;;;;;;0.80;0.80;;;2.70;99.90;;;;;;4956971;29;20208;-65
2022/01/28 16:22:33;;;;;;;0.80;0.80;;;2.60;99.90;;;;;;4956928;29;20214;-65
2022/01/28 16:25:00;;;;;;;0.70;0.70;;;2.70;99.90;;;;;;4956575;28;20212;-64
2022/01/28 16:27:26;;;;;;;0.80;0.80;;;2.60;99.90;;;;;;4956761;29;20288;-64
2022/01/28 16:29:53;;;;;;;0.70;0.70;;;2.60;99.90;;;;;;4957121;29;20294;-64
2022/01/28 16:32:22;;;;;;;0.70;0.65;;;2.50;99.90;;;;;;4957053;29;20609;-64
2022/01/28 16:34:50;;;;;;;0.80;0.80;;;2.50;99.90;;;;;;4956905;29;20228;-64
2022/01/28 16:37:17;;;;;;;0.60;0.60;;;2.50;99.90;;;;;;4956582;29;20224;-64
2022/01/28 16:39:47;;;;;;;0.80;0.80;;;2.40;99.90;;;;;;4957042;29;20291;-66
2022/01/28 16:42:21;;;;;;;0.80;0.80;;;2.40;99.90;;;;;;4956856;29;20188;-64
2022/01/28 16:44:53;;;;;;;1.23;1.13;;;2.40;99.90;;;;;;4956668;29;20296;-64
2022/01/28 16:47:22;;;;;;;1.02;1.02;;;2.40;99.90;;;;;;4956737;29;20271;-64
2022/01/28 16:49:49;;;;;;;0.80;0.80;;;2.40;99.90;;;;;;4956691;29;20235;-65
2022/01/28 16:52:16;;;;;;;0.95;0.95;;;2.30;99.90;;;;;;4956783;29;20268;-66
2022/01/28 16:54:44;;;;;;;0.98;0.98;;;2.30;99.90;;;;;;4956657;29;20234;-65
2022/01/28 16:57:11;;;;;;;1.33;1.23;;;2.30;99.90;;;;;;4956472;29;20311;-65
2022/01/28 16:59:39;;;;;;;1.60;1.50;;;2.30;99.90;;;;;;4956233;28;20294;-65
2022/01/28 17:02:07;;;;;;;1.10;1.10;;;2.30;99.90;;;;;;4956587;29;20196;-64
2022/01/28 17:04:35;;;;;;;1.10;1.10;;;2.30;99.90;;;;;;4955399;28;20263;-66
2022/01/28 17:07:02;;;;;;;1.40;1.30;;;2.30;99.90;;;;;;4956018;29;20648;-64
2022/01/28 17:09:29;;;;;;;1.10;1.10;;;2.20;99.90;;;;;;4956258;28;20285;-67
2022/01/28 17:12:16;;;;;;;1.00;1.00;;;2.30;99.90;;;;;;4956027;29;20676;-64
2022/01/28 17:14:43;;;;;;;1.08;1.08;;;2.30;99.90;;;;;;4955962;29;20339;-64
2022/01/28 17:17:10;;;;;;;1.38;1.13;;;2.20;99.90;;;;;;4956129;29;20258;-64
2022/01/28 17:19:38;;;;;;;1.20;1.10;;;2.20;99.90;;;;;;4956269;29;20239;-64
2022/01/28 17:22:05;;;;;;;1.20;1.10;;;2.20;99.90;;;;;;4956454;28;20291;-64
2022/01/28 17:24:33;;;;;;;1.00;1.00;;;2.20;99.90;;;;;;4957453;28;20319;-64
2022/01/28 17:26:59;;;;;;;0.98;0.98;;;2.20;99.90;;;;;;4958186;29;20684;-64
2022/01/28 17:29:26;;;;;;;1.77;1.20;;;2.20;99.90;;;;;;4958241;29;20267;-65
2022/01/28 17:31:53;;;;;;;1.10;1.10;;;2.20;99.90;;;;;;4957953;29;20250;-65
2022/01/28 17:34:20;;;;;;;1.00;1.00;;;2.20;99.90;;;;;;4956450;29;20244;-65
2022/01/28 17:36:48;;;;;;;1.02;1.02;;;2.20;99.90;;;;;;4956537;29;20310;-65
2022/01/28 17:39:15;;;;;;;1.00;1.00;;;2.20;99.90;;;;;;4955992;28;20298;-64
2022/01/28 17:41:43;;;;;;;1.08;1.08;;;2.20;99.90;;;;;;4955882;29;20294;-64
2022/01/28 17:44:10;;;;;;;1.50;1.40;;;2.10;99.90;;;;;;4955871;29;20228;-65
2022/01/28 17:46:37;;;;;;;1.05;1.05;;;2.10;99.90;;;;;;4955607;29;20208;-63
2022/01/28 17:49:05;;;;;;;1.40;1.30;;;2.10;99.90;;;;;;4955677;29;20736;-67
2022/01/28 17:51:32;;;;;;;1.73;1.30;;;2.00;99.90;;;;;;4956128;29;20299;-68
2022/01/28 17:54:00;;;;;;;1.10;1.10;;;2.00;99.90;;;;;;4956054;29;20314;-67
2022/01/28 17:56:28;;;;;;;1.35;1.25;;;2.00;99.90;;;;;;4956148;29;20295;-66
2022/01/28 17:58:54;;;;;;;1.15;1.15;;;2.00;99.90;;;;;;4956036;29;20255;-67
2022/01/28 18:01:21;;;;;;;1.25;1.25;;;2.00;99.90;;;;;;4955442;29;20755;-65
2022/01/28 18:03:48;;;;;;;0.98;0.98;;;2.00;99.90;;;;;;4955679;29;20798;-64
2022/01/28 18:06:15;;;;;;;0.98;0.98;;;1.90;99.90;;;;;;4955904;29;20298;-65
2022/01/28 18:08:42;;;;;;;1.15;1.15;;;1.90;99.90;;;;;;4955960;29;20290;-64
2022/01/28 18:11:11;;;;;;;1.35;1.27;;;1.80;99.90;;;;;;4955614;29;20294;-64
2022/01/28 18:13:38;;;;;;;1.67;1.58;;;1.80;99.90;;;;;;4955772;29;20656;-64
2022/01/28 18:16:06;;;;;;;1.73;1.63;;;1.80;99.90;;;;;;4958270;28;20291;-64
2022/01/28 18:18:32;;;;;;;1.67;1.48;;;1.80;99.90;;;;;;4959316;29;20692;-65
2022/01/28 18:20:59;;;;;;;2.00;1.80;;;1.80;99.90;;;;;;4959667;29;20291;-67
2022/01/28 18:23:26;;;;;;;1.58;1.48;;;1.80;99.90;;;;;;4959251;29;20810;-65
2022/01/28 18:25:55;;;;;;;1.58;1.48;;;1.80;99.90;;;;;;4959206;29;20650;-64
2022/01/28 18:28:23;;;;;;;1.45;1.35;;;1.80;99.90;;;;;;4959575;29;20199;-64
2022/01/28 18:30:50;;;;;;;1.35;1.25;;;1.80;99.90;;;;;;4959200;29;20295;-64
2022/01/28 18:33:17;;;;;;;1.67;1.58;;;1.80;99.90;;;;;;4959360;29;20314;-64
2022/01/28 18:35:44;;;;;;;1.70;1.60;;;1.80;99.90;;;;;;4959570;29;20294;-65
2022/01/28 18:38:11;;;;;;;1.45;1.40;;;1.80;99.90;;;;;;4959422;29;20318;-65
2022/01/28 18:40:38;;;;;;;1.20;1.20;;;1.70;99.90;;;;;;4959378;29;20306;-65
2022/01/28 18:43:05;;;;;;;1.40;1.30;;;1.70;99.90;;;;;;4959176;29;20224;-65
2022/01/28 18:45:41;;;;;;;1.60;1.50;;;1.70;99.90;;;;;;4959034;29;20299;-65